createdAt,value
2019-02-03T00:03:46.560Z,99184.38
2019-02-03T00:08:53.878Z,99184.66
2019-02-03T00:14:00.369Z,99188.38
2019-02-03T00:19:05.876Z,99173.37
2019-02-03T00:24:13.279Z,99183.05
2019-02-03T00:29:20.393Z,99189.84
2019-02-03T00:34:33.162Z,99201.33
2019-02-03T00:39:38.889Z,99211.29
2019-02-03T00:44:50.494Z,99231.78
2019-02-03T00:50:01.514Z,99229.41
2019-02-03T00:55:09.438Z,99225.75
2019-02-03T01:00:15.564Z,99231.55
2019-02-03T01:05:20.819Z,99242.25
2019-02-03T01:10:25.965Z,99238.56
2019-02-03T01:15:32.411Z,99245.63
2019-02-03T01:20:37.774Z,99249.56
2019-02-03T01:25:42.865Z,99248.80
2019-02-03T01:30:48.330Z,99248.53
2019-02-03T01:35:53.993Z,99250.41
2019-02-03T01:40:59.248Z,99238.37
2019-02-03T01:46:04.360Z,99252.18
2019-02-03T01:51:09.487Z,99260.08
2019-02-03T01:56:14.627Z,99258.02
2019-02-03T02:01:19.772Z,99262.70
2019-02-03T02:06:25.321Z,99262.63
2019-02-03T02:11:30.459Z,99278.37
2019-02-03T02:16:35.722Z,99286.46
2019-02-03T02:21:40.808Z,99297.19
2019-02-03T02:26:46.865Z,99317.02
2019-02-03T02:31:52.126Z,99319.83
2019-02-03T02:36:57.276Z,99314.81
2019-02-03T02:42:02.455Z,99328.21
2019-02-03T02:47:07.796Z,99339.94
2019-02-03T02:52:12.937Z,99365.37
2019-02-03T02:57:18.100Z,99359.13
2019-02-03T03:02:23.355Z,99362.75
2019-02-03T03:07:28.545Z,99361.97
2019-02-03T03:12:33.781Z,99371.13
2019-02-03T03:17:38.863Z,99379.20
2019-02-03T03:22:43.928Z,99387.03
2019-02-03T03:27:49.434Z,99393.08
2019-02-03T03:32:54.576Z,99399.09
2019-02-03T03:37:59.578Z,99395.23
2019-02-03T03:43:04.705Z,99388.44
2019-02-03T03:48:10.109Z,99392.64
2019-02-03T03:53:15.322Z,99404.70
2019-02-03T03:58:20.513Z,99402.33
2019-02-03T04:03:26.554Z,99417.42
2019-02-03T04:08:44.175Z,99416.36
2019-02-03T04:13:38.455Z,99421.87
2019-02-03T04:18:44.061Z,99429.77
2019-02-03T04:23:49.150Z,99448.84
2019-02-03T04:28:54.223Z,99443.70
2019-02-03T04:33:59.452Z,99452.58
2019-02-03T04:39:06.826Z,99465.64
2019-02-03T04:44:12.144Z,99462.55
2019-02-03T04:49:17.384Z,99474.34
2019-02-03T04:54:22.495Z,99466.30
2019-02-03T04:59:27.647Z,99468.92
2019-02-03T05:04:32.798Z,99469.38
2019-02-03T05:09:38.024Z,99466.70
2019-02-03T05:14:43.183Z,99467.83
2019-02-03T05:19:48.338Z,99470.44
2019-02-03T05:24:53.494Z,99469.66
2019-02-03T05:29:58.895Z,99469.59
2019-02-03T05:35:05.119Z,99479.64
2019-02-03T05:40:11.936Z,99494.51
2019-02-03T05:45:18.362Z,99492.67
2019-02-03T05:50:23.624Z,99490.61
2019-02-03T05:55:28.810Z,99490.61
2019-02-03T06:00:36.435Z,99502.12
2019-02-03T06:05:41.501Z,99519.41
2019-02-03T06:10:46.633Z,99519.45
2019-02-03T06:15:51.893Z,99520.23
2019-02-03T06:20:57.043Z,99528.61
2019-02-03T06:26:02.189Z,99534.63
2019-02-03T06:31:14.250Z,99540.72
2019-02-03T06:36:19.342Z,99546.17
2019-02-03T06:41:24.481Z,99560.78
2019-02-03T06:46:45.458Z,99585.34
2019-02-03T06:51:50.718Z,99595.28
2019-02-03T06:56:56.953Z,99599.95
2019-02-03T07:02:02.126Z,99590.75
2019-02-03T07:07:07.259Z,99603.16
2019-02-03T07:12:12.417Z,99615.68
2019-02-03T07:17:17.616Z,99615.88
2019-02-03T07:22:23.177Z,99623.61
2019-02-03T07:27:29.945Z,99610.81
2019-02-03T07:32:35.104Z,99620.17
2019-02-03T07:37:40.259Z,99614.03
2019-02-03T07:42:45.492Z,99614.45
2019-02-03T07:47:50.648Z,99610.28
2019-02-03T07:52:57.116Z,99600.59
2019-02-03T07:58:02.398Z,99592.53
2019-02-03T08:03:07.683Z,99600.91
2019-02-03T08:08:12.802Z,99601.69
2019-02-03T08:13:18.569Z,99625.33
2019-02-03T08:18:23.888Z,99643.52
2019-02-03T08:23:30.477Z,99674.67
2019-02-03T08:28:35.768Z,99703.22
2019-02-03T08:33:44.005Z,99721.33
2019-02-03T08:38:50.900Z,99735.19
2019-02-03T08:43:59.493Z,99751.31
2019-02-03T08:49:04.689Z,99766.35
2019-02-03T08:54:12.786Z,99773.92
2019-02-03T08:59:18.270Z,99774.02
2019-02-03T09:04:24.667Z,99770.52
2019-02-03T09:09:29.749Z,99756.74
2019-02-03T09:14:35.183Z,99758.98
2019-02-03T09:19:40.535Z,99755.20
2019-02-03T09:24:47.278Z,99751.57
2019-02-03T09:29:53.754Z,99759.27
2019-02-03T09:34:59.577Z,99756.16
2019-02-03T09:40:06.461Z,99768.14
2019-02-03T09:45:13.643Z,99776.53
2019-02-03T09:50:29.725Z,99780.98
2019-02-03T09:55:36.697Z,99781.95
2019-02-03T10:00:42.773Z,99775.22
2019-02-03T10:05:51.566Z,99783.45
2019-02-03T10:11:11.295Z,99789.66
2019-02-03T10:16:07.710Z,99800.42
2019-02-03T10:21:13.675Z,99803.37
2019-02-03T10:26:23.329Z,99819.52
2019-02-03T10:31:29.511Z,99826.79
2019-02-03T10:36:34.683Z,99834.02
2019-02-03T10:41:40.167Z,99832.81
2019-02-03T10:46:47.289Z,99831.34
2019-02-03T10:51:52.466Z,99837.21
2019-02-03T10:56:57.615Z,99837.59
2019-02-03T11:02:03.115Z,99833.53
2019-02-03T11:07:08.553Z,99827.17
2019-02-03T11:12:13.704Z,99825.44
2019-02-03T11:17:18.835Z,99825.34
2019-02-03T11:22:25.259Z,99838.19
2019-02-03T11:27:30.473Z,99840.17
2019-02-03T11:32:36.129Z,99854.42
2019-02-03T11:37:41.214Z,99855.16
2019-02-03T11:42:46.567Z,99855.24
2019-02-03T11:47:51.741Z,99855.20
2019-02-03T11:52:57.245Z,99860.77
2019-02-03T11:58:03.762Z,99865.72
2019-02-03T12:03:09.093Z,99865.90
2019-02-03T12:08:14.344Z,99873.94
2019-02-03T12:13:19.716Z,99886.55
2019-02-03T12:18:25.896Z,99887.60
2019-02-03T12:23:32.224Z,99895.16
2019-02-03T12:28:37.409Z,99897.48
2019-02-03T12:33:42.682Z,99908.25
2019-02-03T12:38:47.771Z,99903.33
2019-02-03T12:43:52.892Z,99907.05
2019-02-03T12:48:58.692Z,99905.79
2019-02-03T12:54:04.083Z,99904.63
2019-02-03T12:59:09.516Z,99903.80
2019-02-03T13:04:14.889Z,99913.14
2019-02-03T13:09:19.957Z,99921.95
2019-02-03T13:14:25.142Z,99923.84
2019-02-03T13:19:30.399Z,99926.75
2019-02-03T13:24:35.769Z,99937.66
2019-02-03T13:29:42.658Z,99937.71
2019-02-03T13:34:48.431Z,99950.30
2019-02-03T13:39:53.800Z,99954.05
2019-02-03T13:44:59.498Z,99968.55
2019-02-03T13:50:06.344Z,99976.91
2019-02-03T13:55:15.487Z,99993.54
2019-02-03T14:00:31.290Z,100004.38
2019-02-03T14:05:39.871Z,100012.99
2019-02-03T14:10:50.658Z,100024.13
2019-02-03T14:15:59.022Z,100028.29
2019-02-03T14:21:11.354Z,100038.75
2019-02-03T14:26:17.088Z,100052.25
2019-02-03T14:31:24.542Z,100065.45
2019-02-03T14:36:36.955Z,100073.80
2019-02-03T14:41:45.231Z,100083.25
2019-02-03T14:46:52.901Z,100093.48
2019-02-03T14:51:59.414Z,100097.41
2019-02-03T14:57:09.340Z,100106.02
2019-02-03T15:02:18.023Z,100113.43
2019-02-03T15:07:25.325Z,100121.47
2019-02-03T15:12:33.011Z,100127.89
2019-02-03T15:17:38.424Z,100137.58
2019-02-03T15:22:46.399Z,100139.02
2019-02-03T15:27:52.313Z,100148.11
2019-02-03T15:33:00.877Z,100147.52
2019-02-03T15:38:06.551Z,100167.38
2019-02-03T15:43:11.751Z,100182.20
2019-02-03T15:48:17.338Z,100190.25
2019-02-03T15:53:29.921Z,100195.78
2019-02-03T15:58:36.343Z,100205.00
2019-02-03T16:03:44.997Z,100216.59
2019-02-03T16:08:56.392Z,100233.61
2019-02-03T16:14:04.563Z,100237.24
2019-02-03T16:19:10.655Z,100240.61
2019-02-03T16:24:16.100Z,100253.47
2019-02-03T16:29:21.423Z,100255.20
2019-02-03T16:34:27.495Z,100267.64
2019-02-03T16:39:38.170Z,100284.63
2019-02-03T16:44:44.498Z,100296.02
2019-02-03T16:49:52.575Z,100297.26
2019-02-03T16:55:00.000Z,100308.97
2019-02-03T17:00:09.458Z,100318.40
2019-02-03T17:05:25.993Z,100323.63
2019-02-03T17:10:26.400Z,100334.70
2019-02-03T17:15:38.790Z,100345.55
2019-02-03T17:21:01.316Z,100354.48
2019-02-03T17:26:02.944Z,100374.19
2019-02-03T17:31:08.186Z,100386.27
2019-02-03T17:36:14.383Z,100397.16
2019-02-03T17:41:19.595Z,100406.55
2019-02-03T17:46:24.796Z,100423.48
2019-02-03T17:51:31.203Z,100428.50
2019-02-03T17:56:36.930Z,100435.94
2019-02-03T18:01:42.537Z,100444.28
2019-02-03T18:06:53.008Z,100453.30
2019-02-03T18:11:59.504Z,100461.08
2019-02-03T18:17:06.013Z,100468.81
2019-02-03T18:22:26.705Z,100469.97
2019-02-03T18:27:32.376Z,100479.92
2019-02-03T18:32:39.483Z,100485.39
2019-02-03T18:37:48.642Z,100486.84
2019-02-03T18:42:57.640Z,100500.42
2019-02-03T18:48:05.756Z,100500.50
2019-02-03T18:53:11.695Z,100501.96
2019-02-03T18:58:17.278Z,100509.89
2019-02-03T19:03:23.511Z,100517.75
2019-02-03T19:08:29.043Z,100530.98
2019-02-03T19:13:34.324Z,100540.67
2019-02-03T19:18:44.301Z,100543.70
2019-02-03T19:23:49.526Z,100550.71
2019-02-03T19:28:55.036Z,100557.41
2019-02-03T19:34:00.597Z,100558.64
2019-02-03T19:39:09.757Z,100563.95
2019-02-03T19:44:16.064Z,100572.41
2019-02-03T19:49:22.258Z,100579.13
2019-02-03T19:54:28.956Z,100590.28
2019-02-03T19:59:46.274Z,100595.22
2019-02-03T20:04:44.890Z,100609.64
2019-02-03T20:09:55.735Z,100615.92
2019-02-03T20:15:09.719Z,100617.49
2019-02-03T20:20:14.991Z,100633.02
2019-02-03T20:25:20.263Z,100646.47
2019-02-03T20:30:38.096Z,100661.47
2019-02-03T20:35:33.695Z,100663.43
2019-02-03T20:40:45.611Z,100666.95
2019-02-03T20:45:50.972Z,100676.61
2019-02-03T20:50:58.710Z,100694.81
2019-02-03T20:56:04.067Z,100695.61
2019-02-03T21:01:11.451Z,100700.46
2019-02-03T21:06:20.835Z,100707.01
2019-02-03T21:11:28.149Z,100715.69
2019-02-03T21:16:35.603Z,100717.12
2019-02-03T21:21:42.805Z,100730.53
2019-02-03T21:26:48.278Z,100738.69
2019-02-03T21:31:53.540Z,100745.16
2019-02-03T21:36:59.548Z,100756.56
2019-02-03T21:42:06.980Z,100762.98
2019-02-03T21:47:12.285Z,100778.95
2019-02-03T21:52:17.889Z,100782.52
2019-02-03T21:57:23.544Z,100795.45
2019-02-03T22:02:28.653Z,100798.34
2019-02-03T22:07:36.395Z,100800.91
2019-02-03T22:12:44.090Z,100809.64
2019-02-03T22:17:51.173Z,100827.37
2019-02-03T22:22:56.370Z,100831.73
2019-02-03T22:28:01.650Z,100833.83
2019-02-03T22:33:11.409Z,100840.34
2019-02-03T22:38:17.250Z,100842.60
2019-02-03T22:43:22.913Z,100852.08
2019-02-03T22:48:31.480Z,100863.69
2019-02-03T22:53:36.580Z,100866.34
2019-02-03T22:58:42.465Z,100879.74
2019-02-03T23:04:32.317Z,100881.97
2019-02-03T23:09:42.696Z,100893.45
2019-02-03T23:14:48.092Z,100897.00
2019-02-03T23:19:53.351Z,100906.38
2019-02-03T23:25:03.750Z,100907.17
2019-02-03T23:30:13.099Z,100907.06
2019-02-03T23:35:18.542Z,100913.52
2019-02-03T23:40:23.695Z,100915.80
2019-02-03T23:45:28.827Z,100917.53
2019-02-03T23:50:33.876Z,100920.58
2019-02-03T23:55:39.022Z,100928.92
